createdAt,value
2018-06-18T00:00:45.725Z,58.87
2018-06-18T00:02:50.599Z,56.67
2018-06-18T00:04:55.644Z,57.04
2018-06-18T00:07:00.365Z,57.33
2018-06-18T00:09:08.447Z,57.51
2018-06-18T00:11:13.182Z,56.68
2018-06-18T00:13:17.912Z,56.92
2018-06-18T00:15:22.570Z,57.99
2018-06-18T00:17:27.287Z,58.46
2018-06-18T00:19:31.902Z,57.47
2018-06-18T00:21:36.572Z,56.94
2018-06-18T00:23:41.451Z,57.70
2018-06-18T00:25:46.213Z,58.04
2018-06-18T00:27:51.127Z,57.59
2018-06-18T00:29:56.011Z,57.74
2018-06-18T00:32:00.678Z,58.30
2018-06-18T00:34:05.439Z,58.56
2018-06-18T00:36:10.218Z,58.25
2018-06-18T00:38:15.036Z,58.54
2018-06-18T00:40:23.222Z,58.00
2018-06-18T00:42:29.063Z,58.23
2018-06-18T00:44:33.730Z,57.89
2018-06-18T00:46:38.565Z,57.07
2018-06-18T00:48:43.250Z,57.73
2018-06-18T00:50:48.593Z,58.04
2018-06-18T00:52:54.001Z,56.94
2018-06-18T00:54:58.859Z,58.20
2018-06-18T00:57:03.474Z,58.76
2018-06-18T00:59:08.258Z,58.77
2018-06-18T01:01:13.662Z,59.29
2018-06-18T01:03:18.334Z,59.30
2018-06-18T01:05:23.028Z,59.65
2018-06-18T01:07:27.736Z,59.60
2018-06-18T01:09:32.361Z,59.66
2018-06-18T01:11:36.997Z,59.74
2018-06-18T01:13:41.611Z,59.72
2018-06-18T01:15:46.405Z,59.66
2018-06-18T01:17:51.053Z,59.46
2018-06-18T01:19:55.681Z,59.69
2018-06-18T01:22:00.313Z,59.55
2018-06-18T01:24:51.902Z,59.61
2018-06-18T01:26:56.545Z,59.55
2018-06-18T01:29:01.192Z,59.35
2018-06-18T01:31:06.020Z,59.65
2018-06-18T01:33:10.705Z,59.39
2018-06-18T01:35:15.338Z,60.11
2018-06-18T01:37:20.069Z,60.14
2018-06-18T01:39:25.068Z,60.39
2018-06-18T01:41:29.763Z,60.11
2018-06-18T01:43:34.380Z,60.64
2018-06-18T01:45:39.145Z,60.96
2018-06-18T01:47:43.854Z,60.41
2018-06-18T01:49:48.479Z,61.11
2018-06-18T01:51:53.190Z,60.68
2018-06-18T01:53:57.813Z,61.26
2018-06-18T01:56:02.467Z,61.09
2018-06-18T01:58:07.451Z,61.20
2018-06-18T02:00:12.122Z,60.82
2018-06-18T02:02:16.756Z,61.98
2018-06-18T02:04:21.544Z,62.20
2018-06-18T02:06:26.260Z,62.15
2018-06-18T02:08:31.092Z,62.59
2018-06-18T02:10:35.751Z,63.12
2018-06-18T02:12:40.433Z,62.84
2018-06-18T02:14:45.111Z,63.58
2018-06-18T02:16:49.829Z,63.86
2018-06-18T02:18:54.507Z,63.67
2018-06-18T02:20:58.882Z,63.82
2018-06-18T02:23:03.616Z,63.45
2018-06-18T02:25:08.306Z,64.04
2018-06-18T02:27:17.013Z,64.45
2018-06-18T02:29:26.717Z,64.55
2018-06-18T02:31:36.555Z,64.55
2018-06-18T02:33:46.236Z,64.81
2018-06-18T02:35:56.828Z,65.48
2018-06-18T02:38:06.752Z,65.57
2018-06-18T02:40:16.482Z,65.53
2018-06-18T02:42:21.196Z,65.99
2018-06-18T02:44:26.081Z,65.73
2018-06-18T02:46:31.237Z,66.36
2018-06-18T02:48:35.905Z,66.21
2018-06-18T02:50:40.639Z,66.33
2018-06-18T02:52:49.481Z,67.00
2018-06-18T02:54:54.197Z,67.04
2018-06-18T02:57:03.658Z,67.52
2018-06-18T02:59:08.624Z,67.45
2018-06-18T03:01:13.391Z,66.84
2018-06-18T03:03:18.054Z,67.78
2018-06-18T03:05:22.694Z,67.96
2018-06-18T03:07:27.401Z,67.79
2018-06-18T03:09:32.020Z,67.43
2018-06-18T03:11:36.843Z,67.77
2018-06-18T03:13:41.544Z,67.60
2018-06-18T03:15:46.199Z,67.62
2018-06-18T03:17:50.997Z,67.96
2018-06-18T03:20:00.803Z,67.47
2018-06-18T03:22:10.681Z,68.47
2018-06-18T03:24:20.434Z,68.57
2018-06-18T03:26:30.211Z,68.06
2018-06-18T03:28:39.939Z,68.24
2018-06-18T03:30:44.625Z,67.46
2018-06-18T03:32:50.538Z,68.36
2018-06-18T03:34:55.171Z,68.00
2018-06-18T03:37:00.952Z,68.01
2018-06-18T03:39:09.311Z,68.30
2018-06-18T03:41:13.965Z,68.07
2018-06-18T03:43:18.696Z,68.01
2018-06-18T03:45:30.247Z,67.49
2018-06-18T03:47:34.865Z,67.45
2018-06-18T03:49:39.625Z,67.11
2018-06-18T03:51:44.332Z,67.05
2018-06-18T03:53:48.982Z,67.25
2018-06-18T03:55:57.752Z,67.87
2018-06-18T03:58:07.346Z,68.01
2018-06-18T04:00:13.299Z,67.43
2018-06-18T04:02:38.537Z,67.84
2018-06-18T04:04:56.818Z,66.92
2018-06-18T04:07:07.377Z,67.62
2018-06-18T04:09:17.347Z,67.95
2018-06-18T04:11:27.242Z,67.52
2018-06-18T04:13:32.020Z,68.38
2018-06-18T04:15:36.980Z,67.58
2018-06-18T04:17:41.817Z,67.86
2018-06-18T04:19:46.541Z,67.66
2018-06-18T04:21:51.418Z,67.36
2018-06-18T04:23:56.142Z,67.31
2018-06-18T04:26:01.358Z,67.48
2018-06-18T04:28:06.183Z,67.68
2018-06-18T04:30:10.964Z,67.80
2018-06-18T04:32:15.749Z,68.33
2018-06-18T04:34:35.522Z,67.88
2018-06-18T04:36:40.245Z,67.05
2018-06-18T04:38:44.931Z,67.75
2018-06-18T04:40:49.903Z,67.44
2018-06-18T04:43:00.117Z,67.39
2018-06-18T04:45:12.422Z,66.84
2018-06-18T04:47:27.744Z,67.63
2018-06-18T04:49:44.215Z,67.33
2018-06-18T04:51:55.230Z,67.66
2018-06-18T04:54:06.356Z,67.27
2018-06-18T04:56:15.172Z,66.79
2018-06-18T04:58:19.829Z,66.68
2018-06-18T05:00:43.940Z,66.59
2018-06-18T05:02:48.264Z,67.18
2018-06-18T05:04:53.258Z,66.29
2018-06-18T05:06:58.502Z,66.25
2018-06-18T05:09:40.271Z,66.66
2018-06-18T05:11:45.078Z,66.02
2018-06-18T05:13:50.164Z,65.95
2018-06-18T05:15:55.598Z,66.13
2018-06-18T05:18:00.367Z,65.98
2018-06-18T05:20:05.262Z,65.45
2018-06-18T05:22:10.130Z,65.34
2018-06-18T05:24:14.804Z,65.39
2018-06-18T05:26:20.088Z,65.41
2018-06-18T05:28:24.934Z,65.30
2018-06-18T05:30:31.489Z,65.00
2018-06-18T05:32:36.218Z,64.95
2018-06-18T05:34:41.043Z,64.96
2018-06-18T05:36:45.850Z,64.52
2018-06-18T05:38:51.108Z,63.90
2018-06-18T05:40:56.216Z,63.99
2018-06-18T05:43:00.940Z,63.24
2018-06-18T05:45:06.087Z,63.89
2018-06-18T05:47:10.899Z,63.22
2018-06-18T05:49:15.740Z,63.20
2018-06-18T05:51:21.240Z,63.29
2018-06-18T05:53:25.997Z,63.60
2018-06-18T05:55:30.818Z,63.13
2018-06-18T05:57:35.530Z,63.56
2018-06-18T05:59:40.276Z,63.92
2018-06-18T06:01:44.963Z,63.79
2018-06-18T06:03:49.767Z,64.68
2018-06-18T06:05:54.667Z,63.78
2018-06-18T06:07:59.343Z,64.02
2018-06-18T06:10:04.092Z,64.13
2018-06-18T06:12:09.840Z,63.05
2018-06-18T06:14:14.618Z,63.05
2018-06-18T06:16:19.306Z,64.06
2018-06-18T06:18:24.012Z,63.95
2018-06-18T06:20:28.834Z,64.18
2018-06-18T06:22:33.552Z,63.57
2018-06-18T06:24:38.171Z,64.51
2018-06-18T06:26:42.867Z,64.63
2018-06-18T06:28:47.578Z,64.94
2018-06-18T06:30:52.368Z,63.58
2018-06-18T06:32:57.146Z,63.17
2018-06-18T06:35:11.430Z,62.73
2018-06-18T06:37:16.381Z,63.32
2018-06-18T06:39:21.933Z,63.75
2018-06-18T06:41:29.173Z,63.92
2018-06-18T06:43:33.931Z,64.00
2018-06-18T06:45:38.644Z,64.89
2018-06-18T06:47:43.399Z,66.31
2018-06-18T06:49:48.151Z,64.77
2018-06-18T06:51:53.199Z,64.71
2018-06-18T06:53:57.884Z,65.21
2018-06-18T06:56:02.584Z,64.68
2018-06-18T06:58:07.485Z,63.43
2018-06-18T07:00:13.822Z,63.61
2018-06-18T07:02:19.005Z,63.23
2018-06-18T07:04:23.944Z,63.12
2018-06-18T07:06:28.669Z,63.16
2018-06-18T07:08:33.601Z,61.78
2018-06-18T07:10:38.370Z,62.38
2018-06-18T07:12:43.191Z,63.29
2018-06-18T07:14:47.936Z,63.98
2018-06-18T07:16:52.826Z,63.24
2018-06-18T07:18:57.580Z,61.52
2018-06-18T07:21:02.476Z,61.93
2018-06-18T07:23:07.229Z,60.76
2018-06-18T07:25:12.020Z,60.60
2018-06-18T07:27:16.685Z,60.59
2018-06-18T07:29:21.519Z,61.34
2018-06-18T07:31:27.174Z,61.57
2018-06-18T07:33:32.140Z,61.57
2018-06-18T07:35:36.906Z,60.64
2018-06-18T07:37:41.297Z,60.20
2018-06-18T07:39:46.044Z,59.90
2018-06-18T07:41:50.958Z,59.74
2018-06-18T07:43:55.635Z,59.32
2018-06-18T07:46:00.232Z,59.42
2018-06-18T07:48:04.930Z,61.39
2018-06-18T07:50:10.002Z,60.77
2018-06-18T07:52:14.679Z,61.18
2018-06-18T07:54:19.478Z,60.68
2018-06-18T07:56:24.177Z,60.32
2018-06-18T07:58:29.121Z,61.13
2018-06-18T08:00:33.833Z,60.89
2018-06-18T08:02:38.552Z,61.17
2018-06-18T08:04:43.634Z,61.81
2018-06-18T08:06:48.541Z,61.33
2018-06-18T08:08:53.449Z,62.09
2018-06-18T08:10:58.445Z,61.22
2018-06-18T08:13:03.071Z,60.87
2018-06-18T08:15:07.836Z,59.99
2018-06-18T08:17:12.557Z,59.96
2018-06-18T08:19:17.379Z,59.66
2018-06-18T08:21:22.257Z,59.09
2018-06-18T08:23:26.986Z,57.95
2018-06-18T08:25:31.822Z,59.52
2018-06-18T08:27:36.576Z,58.97
2018-06-18T08:29:41.267Z,57.91
2018-06-18T08:31:45.990Z,57.70
2018-06-18T08:33:50.777Z,56.47
2018-06-18T08:35:55.522Z,57.25
2018-06-18T08:38:00.230Z,58.18
2018-06-18T08:40:05.281Z,59.18
2018-06-18T08:42:10.256Z,59.01
2018-06-18T08:44:14.886Z,57.85
2018-06-18T08:46:19.654Z,57.48
2018-06-18T08:49:32.561Z,56.48
2018-06-18T08:51:42.572Z,56.21
2018-06-18T08:55:53.754Z,56.22
2018-06-18T08:58:03.577Z,56.96
2018-06-18T09:00:13.332Z,56.65
2018-06-18T09:02:22.245Z,57.02
2018-06-18T09:04:31.995Z,56.04
2018-06-18T09:06:36.721Z,56.19
2018-06-18T09:08:47.070Z,56.51
2018-06-18T09:10:51.994Z,56.14
2018-06-18T09:12:56.898Z,56.86
2018-06-18T09:15:01.817Z,57.04
2018-06-18T09:17:06.593Z,57.88
2018-06-18T09:19:11.232Z,57.54
2018-06-18T09:21:15.901Z,58.50
2018-06-18T09:23:20.704Z,58.11
2018-06-18T09:25:25.619Z,58.00
2018-06-18T09:27:30.340Z,58.07
2018-06-18T09:29:35.922Z,57.91
2018-06-18T09:31:45.900Z,58.66
2018-06-18T09:33:50.688Z,58.85
2018-06-18T09:35:55.489Z,57.69
2018-06-18T09:38:00.370Z,58.07
2018-06-18T09:40:05.695Z,57.73
2018-06-18T09:42:10.569Z,56.91
2018-06-18T09:44:15.362Z,56.08
2018-06-18T09:46:20.274Z,57.05
2018-06-18T09:48:29.748Z,56.63
2018-06-18T09:50:39.471Z,56.14
2018-06-18T09:54:51.267Z,54.96
2018-06-18T09:57:01.094Z,55.96
2018-06-18T09:59:10.948Z,56.04
2018-06-18T10:01:33.558Z,55.04
2018-06-18T10:03:38.261Z,55.13
2018-06-18T10:05:43.054Z,55.84
2018-06-18T10:07:47.776Z,55.87
2018-06-18T10:09:52.511Z,54.78
2018-06-18T10:11:57.240Z,54.07
2018-06-18T10:14:02.527Z,54.42
2018-06-18T10:16:08.000Z,54.13
2018-06-18T10:18:12.763Z,54.31
2018-06-18T10:20:17.808Z,54.07
2018-06-18T10:22:22.555Z,55.05
2018-06-18T10:24:27.253Z,54.10
2018-06-18T10:26:32.021Z,55.19
2018-06-18T10:28:36.869Z,55.67
2018-06-18T10:30:41.746Z,55.42
2018-06-18T10:32:51.484Z,56.02
2018-06-18T10:35:01.334Z,54.78
2018-06-18T10:37:11.108Z,55.87
2018-06-18T10:39:20.854Z,55.65
2018-06-18T10:41:30.753Z,55.84
2018-06-18T10:43:36.682Z,55.55
2018-06-18T10:45:41.521Z,56.63
2018-06-18T10:47:46.264Z,56.00
2018-06-18T10:49:51.066Z,55.22
2018-06-18T10:51:55.815Z,54.92
2018-06-18T10:54:00.709Z,54.49
2018-06-18T10:56:05.700Z,54.64
2018-06-18T10:58:10.627Z,53.47
2018-06-18T11:00:22.438Z,53.64
2018-06-18T11:02:28.430Z,55.00
2018-06-18T11:04:33.540Z,54.36
2018-06-18T11:06:38.722Z,54.88
2018-06-18T11:08:43.515Z,56.60
2018-06-18T11:10:48.286Z,55.65
2018-06-18T11:12:53.053Z,55.72
2018-06-18T11:14:57.817Z,56.13
2018-06-18T11:17:08.000Z,56.18
2018-06-18T11:19:18.219Z,54.65
2018-06-18T11:21:28.026Z,54.49
2018-06-18T11:23:37.894Z,55.37
2018-06-18T11:25:47.827Z,57.73
2018-06-18T11:27:52.660Z,57.58
2018-06-18T11:29:57.542Z,56.52
2018-06-18T11:32:02.448Z,56.94
2018-06-18T11:34:07.257Z,57.35
2018-06-18T11:36:12.002Z,57.40
2018-06-18T11:38:16.403Z,57.35
2018-06-18T11:40:21.114Z,56.54
2018-06-18T11:42:25.863Z,57.36
2018-06-18T11:44:30.702Z,57.65
2018-06-18T11:46:35.453Z,57.75
2018-06-18T11:48:40.223Z,56.75
2018-06-18T11:50:45.024Z,57.12
2018-06-18T11:52:49.972Z,56.32
2018-06-18T11:54:55.140Z,58.26
2018-06-18T11:57:00.142Z,57.43
2018-06-18T11:59:10.120Z,58.98
2018-06-18T12:01:19.979Z,57.03
2018-06-18T12:03:29.853Z,58.78
2018-06-18T12:05:39.785Z,57.02
2018-06-18T12:07:49.707Z,57.43
2018-06-18T12:09:54.900Z,58.62
2018-06-18T12:12:00.013Z,59.46
2018-06-18T12:14:05.884Z,59.48
2018-06-18T12:16:10.937Z,59.94
2018-06-18T12:18:15.703Z,59.87
2018-06-18T12:20:20.422Z,59.30
2018-06-18T12:22:25.203Z,59.59
2018-06-18T12:24:30.087Z,58.61
2018-06-18T12:26:35.068Z,59.06
2018-06-18T12:28:39.910Z,57.77
2018-06-18T12:30:44.894Z,58.06
2018-06-18T12:32:49.802Z,58.68
2018-06-18T12:34:54.847Z,59.15
2018-06-18T12:36:59.748Z,59.54
2018-06-18T12:39:06.526Z,59.80
2018-06-18T12:41:11.649Z,59.65
2018-06-18T12:43:20.278Z,58.95
2018-06-18T12:45:30.133Z,59.75
2018-06-18T12:47:40.078Z,58.01
2018-06-18T12:49:49.876Z,57.95
2018-06-18T12:51:59.638Z,58.37
2018-06-18T12:54:09.526Z,60.17
2018-06-18T12:56:19.555Z,58.49
2018-06-18T12:58:24.399Z,59.06
2018-06-18T13:00:29.501Z,58.48
2018-06-18T13:02:40.294Z,59.13
2018-06-18T13:04:51.172Z,58.20
2018-06-18T13:06:55.961Z,58.88
2018-06-18T13:09:00.790Z,58.60
2018-06-18T13:11:05.691Z,58.17
2018-06-18T13:13:10.757Z,59.16
2018-06-18T13:15:15.596Z,58.58
2018-06-18T13:17:20.417Z,59.25
2018-06-18T13:19:25.375Z,61.33
2018-06-18T13:21:30.165Z,63.84
2018-06-18T13:23:35.314Z,64.59
2018-06-18T13:25:40.072Z,64.57
2018-06-18T13:27:49.841Z,63.08
2018-06-18T13:29:54.619Z,64.76
2018-06-18T13:31:59.388Z,63.41
2018-06-18T13:34:04.120Z,62.11
2018-06-18T13:36:08.898Z,62.89
2018-06-18T13:38:18.745Z,60.93
2018-06-18T13:40:28.658Z,60.55
2018-06-18T13:42:38.493Z,60.20
2018-06-18T13:44:48.255Z,58.16
2018-06-18T13:46:58.020Z,60.06
2018-06-18T13:49:03.108Z,59.81
2018-06-18T13:51:08.176Z,59.86
2018-06-18T13:53:13.482Z,59.16
2018-06-18T13:55:19.228Z,59.25
2018-06-18T13:57:24.476Z,60.12
2018-06-18T13:59:29.297Z,60.49
2018-06-18T14:01:34.187Z,60.78
2018-06-18T14:03:39.159Z,61.42
2018-06-18T14:05:44.149Z,60.62
2018-06-18T14:07:49.838Z,63.29
2018-06-18T14:09:55.489Z,63.68
2018-06-18T14:12:01.917Z,64.04
2018-06-18T14:14:07.233Z,64.43
2018-06-18T14:16:12.174Z,64.55
2018-06-18T14:18:17.012Z,65.25
2018-06-18T14:20:23.531Z,64.20
2018-06-18T14:22:28.368Z,65.37
2018-06-18T14:24:33.379Z,64.78
2018-06-18T14:26:38.236Z,65.09
2018-06-18T14:28:43.477Z,63.34
2018-06-18T14:30:53.387Z,63.65
2018-06-18T14:33:03.198Z,62.66
2018-06-18T14:35:13.180Z,62.32
2018-06-18T14:37:23.152Z,62.14
2018-06-18T14:40:03.476Z,60.00
2018-06-18T14:42:09.668Z,59.09
2018-06-18T14:44:14.609Z,58.69
2018-06-18T14:46:20.248Z,57.48
2018-06-18T14:48:26.085Z,57.16
2018-06-18T14:50:30.859Z,57.15
2018-06-18T14:52:35.715Z,58.00
2018-06-18T14:54:40.542Z,57.71
2018-06-18T14:56:45.519Z,59.58
2018-06-18T15:01:20.918Z,59.51
2018-06-18T15:03:25.704Z,60.18
2018-06-18T15:05:34.900Z,58.78
2018-06-18T15:07:40.167Z,60.20
2018-06-18T15:09:44.891Z,60.32
2018-06-18T15:11:49.661Z,59.71
2018-06-18T15:13:54.503Z,60.44
2018-06-18T15:16:04.347Z,59.30
2018-06-18T15:18:09.235Z,59.95
2018-06-18T15:20:14.187Z,60.51
2018-06-18T15:22:19.268Z,60.94
2018-06-18T15:24:38.520Z,60.19
2018-06-18T15:28:54.809Z,62.91
2018-06-18T15:30:59.528Z,62.74
2018-06-18T15:33:04.403Z,62.40
2018-06-18T15:35:09.189Z,62.32
2018-06-18T15:37:14.311Z,62.41
2018-06-18T15:39:19.104Z,61.17
2018-06-18T15:41:25.038Z,59.29
2018-06-18T15:43:29.768Z,59.62
2018-06-18T15:45:34.519Z,59.45
2018-06-18T15:47:39.299Z,59.44
2018-06-18T15:49:44.252Z,60.64
2018-06-18T15:51:49.163Z,60.93
2018-06-18T15:53:54.088Z,61.46
2018-06-18T15:55:58.839Z,60.10
2018-06-18T15:58:03.928Z,59.88
2018-06-18T16:00:08.970Z,59.96
2018-06-18T16:02:13.661Z,62.23
2018-06-18T16:04:18.532Z,60.81
2018-06-18T16:06:23.328Z,61.46
2018-06-18T16:08:28.092Z,60.72
2018-06-18T16:10:32.894Z,61.12
2018-06-18T16:12:37.683Z,60.60
2018-06-18T16:14:42.478Z,60.63
2018-06-18T16:16:47.178Z,60.86
2018-06-18T16:18:52.097Z,58.10
2018-06-18T16:20:56.705Z,58.53
2018-06-18T16:23:01.350Z,58.73
2018-06-18T16:25:06.552Z,59.86
2018-06-18T16:27:11.322Z,60.58
2018-06-18T16:29:16.159Z,60.03
2018-06-18T16:31:21.225Z,58.75
2018-06-18T16:33:26.013Z,60.54
2018-06-18T16:35:31.014Z,59.49
2018-06-18T16:37:36.029Z,59.94
2018-06-18T16:39:40.932Z,61.24
2018-06-18T16:41:45.741Z,60.97
2018-06-18T16:43:50.629Z,60.63
2018-06-18T16:45:56.080Z,61.54
2018-06-18T16:48:00.915Z,61.29
2018-06-18T16:50:05.862Z,60.43
2018-06-18T16:52:10.662Z,60.53
2018-06-18T16:54:15.922Z,59.21
2018-06-18T16:56:20.700Z,59.03
2018-06-18T16:58:25.540Z,59.37
2018-06-18T17:00:30.475Z,59.64
2018-06-18T17:02:35.824Z,60.70
2018-06-18T17:04:40.560Z,60.54
2018-06-18T17:06:46.179Z,59.80
2018-06-18T17:08:51.034Z,58.37
2018-06-18T17:10:55.905Z,59.63
2018-06-18T17:13:00.631Z,59.72
2018-06-18T17:15:05.805Z,58.33
2018-06-18T17:17:10.622Z,57.84
2018-06-18T17:19:15.408Z,56.00
2018-06-18T17:21:20.297Z,55.34
2018-06-18T17:23:25.275Z,56.45
2018-06-18T17:25:30.258Z,56.24
2018-06-18T17:27:35.377Z,55.34
2018-06-18T17:29:40.133Z,55.58
2018-06-18T17:31:45.087Z,52.21
2018-06-18T17:33:49.829Z,53.32
2018-06-18T17:35:54.589Z,52.03
2018-06-18T17:37:59.380Z,52.90
2018-06-18T17:40:04.428Z,53.13
2018-06-18T17:42:09.404Z,52.55
2018-06-18T17:44:14.373Z,50.88
2018-06-18T17:46:19.167Z,50.08
2018-06-18T17:48:24.023Z,51.74
2018-06-18T17:50:29.044Z,52.15
2018-06-18T17:52:33.649Z,52.33
2018-06-18T17:54:38.453Z,52.12
2018-06-18T17:56:43.231Z,52.79
2018-06-18T17:58:48.204Z,53.25
2018-06-18T18:00:52.897Z,52.69
2018-06-18T18:02:57.638Z,53.94
2018-06-18T18:05:02.741Z,54.50
2018-06-18T18:07:07.638Z,53.43
2018-06-18T18:09:12.547Z,53.55
2018-06-18T18:11:17.366Z,53.94
2018-06-18T18:13:22.229Z,54.09
2018-06-18T18:15:26.896Z,54.17
2018-06-18T18:17:31.752Z,53.25
2018-06-18T18:19:36.717Z,53.26
2018-06-18T18:21:41.807Z,53.23
2018-06-18T18:23:47.150Z,54.54
2018-06-18T18:25:52.049Z,56.95
2018-06-18T18:27:57.756Z,57.89
2018-06-18T18:30:02.583Z,58.27
2018-06-18T18:32:07.446Z,58.74
2018-06-18T18:34:12.431Z,58.68
2018-06-18T18:36:17.239Z,58.71
2018-06-18T18:38:22.150Z,58.35
2018-06-18T18:40:26.984Z,58.66
2018-06-18T18:42:31.967Z,58.55
2018-06-18T18:44:37.029Z,59.13
2018-06-18T18:46:41.963Z,57.98
2018-06-18T18:48:46.994Z,58.37
2018-06-18T18:50:52.375Z,59.42
2018-06-18T18:52:59.937Z,59.48
2018-06-18T18:55:48.036Z,59.61
2018-06-18T18:58:09.543Z,60.19
2018-06-18T19:00:14.947Z,59.63
2018-06-18T19:02:20.012Z,59.66
2018-06-18T19:04:31.929Z,58.60
2018-06-18T19:06:37.019Z,59.41
2018-06-18T19:08:42.094Z,59.86
2018-06-18T19:10:48.377Z,58.66
2018-06-18T19:12:56.877Z,59.66
2018-06-18T19:15:02.336Z,60.95
2018-06-18T19:17:10.693Z,61.23
2018-06-18T19:19:16.873Z,60.74
2018-06-18T19:21:22.353Z,62.22
2018-06-18T19:23:28.311Z,61.93
2018-06-18T19:25:35.124Z,61.01
2018-06-18T19:27:42.289Z,61.62
2018-06-18T19:29:47.888Z,60.92
2018-06-18T19:31:54.225Z,61.90
2018-06-18T19:34:32.959Z,62.88
2018-06-18T19:36:39.906Z,62.54
2018-06-18T19:38:45.068Z,62.38
2018-06-18T19:40:51.435Z,62.60
2018-06-18T19:42:56.869Z,61.79
2018-06-18T19:45:02.150Z,62.11
2018-06-18T19:47:41.622Z,63.59
2018-06-18T19:49:46.829Z,63.34
2018-06-18T19:51:53.191Z,62.92
2018-06-18T19:53:58.229Z,62.71
2018-06-18T19:56:03.391Z,63.12
2018-06-18T19:58:08.255Z,63.34
2018-06-18T20:00:13.954Z,64.21
2018-06-18T20:02:19.819Z,63.76
2018-06-18T20:04:25.492Z,64.20
2018-06-18T20:06:31.444Z,63.41
2018-06-18T20:08:36.501Z,63.95
2018-06-18T20:10:41.299Z,64.51
2018-06-18T20:12:46.282Z,63.83
2018-06-18T20:14:52.678Z,63.27
2018-06-18T20:16:57.713Z,63.55
2018-06-18T20:19:03.545Z,63.49
2018-06-18T20:21:10.063Z,63.56
2018-06-18T20:23:18.583Z,63.14
2018-06-18T20:25:37.203Z,63.42
2018-06-18T20:27:47.589Z,64.07
2018-06-18T20:29:52.732Z,63.93
2018-06-18T20:31:57.958Z,62.79
2018-06-18T20:34:03.013Z,63.39
2018-06-18T20:36:13.210Z,62.99
2018-06-18T20:38:18.420Z,63.43
2018-06-18T20:40:23.633Z,62.96
2018-06-18T20:42:28.976Z,63.18
2018-06-18T20:44:34.243Z,63.05
2018-06-18T20:46:40.576Z,62.91
2018-06-18T20:48:47.851Z,61.88
2018-06-18T20:50:53.049Z,63.53
2018-06-18T20:52:59.326Z,64.36
2018-06-18T20:55:04.956Z,64.14
2018-06-18T20:57:10.130Z,64.16
2018-06-18T20:59:15.832Z,62.81
2018-06-18T21:01:20.593Z,63.96
2018-06-18T21:03:25.836Z,63.56
2018-06-18T21:05:30.774Z,63.38
2018-06-18T21:07:35.937Z,63.45
2018-06-18T21:09:40.761Z,62.65
2018-06-18T21:11:45.856Z,62.44
2018-06-18T21:13:50.898Z,63.91
2018-06-18T21:15:55.691Z,63.33
2018-06-18T21:18:00.955Z,64.58
2018-06-18T21:20:05.821Z,63.99
2018-06-18T21:22:10.575Z,62.91
2018-06-18T21:24:15.655Z,62.69
2018-06-18T21:26:20.512Z,63.06
2018-06-18T21:28:25.248Z,64.08
2018-06-18T21:30:30.302Z,62.67
2018-06-18T21:32:34.989Z,63.25
2018-06-18T21:34:40.283Z,63.37
2018-06-18T21:36:45.300Z,63.98
2018-06-18T21:38:50.084Z,63.92
2018-06-18T21:40:55.185Z,64.52
2018-06-18T21:42:59.962Z,63.77
2018-06-18T21:45:13.644Z,62.71
2018-06-18T21:47:19.194Z,63.03
2018-06-18T21:49:24.073Z,63.35
2018-06-18T21:51:29.345Z,63.78
2018-06-18T21:53:34.353Z,63.57
2018-06-18T21:55:39.184Z,64.11
2018-06-18T21:57:44.049Z,63.38
2018-06-18T21:59:49.138Z,63.17
2018-06-18T22:01:53.829Z,63.35
2018-06-18T22:03:58.654Z,63.35
2018-06-18T22:06:03.589Z,63.38
2018-06-18T22:08:12.142Z,63.71
2018-06-18T22:10:17.137Z,64.25
2018-06-18T22:12:21.943Z,64.96
2018-06-18T22:14:26.904Z,65.10
2018-06-18T22:16:31.679Z,64.97
2018-06-18T22:18:36.543Z,64.90
2018-06-18T22:20:41.305Z,64.34
2018-06-18T22:22:46.152Z,64.72
2018-06-18T22:24:51.186Z,64.54
2018-06-18T22:26:56.077Z,65.41
2018-06-18T22:29:01.068Z,65.11
2018-06-18T22:31:06.722Z,65.81
2018-06-18T22:33:14.178Z,66.15
2018-06-18T22:35:19.070Z,65.43
2018-06-18T22:37:24.095Z,65.30
2018-06-18T22:39:29.123Z,66.00
2018-06-18T22:41:34.138Z,66.25
2018-06-18T22:43:39.209Z,66.40
2018-06-18T22:45:44.057Z,64.65
2018-06-18T22:47:48.827Z,65.28
2018-06-18T22:49:53.696Z,66.41
2018-06-18T22:51:58.544Z,66.43
2018-06-18T22:54:04.000Z,66.07
2018-06-18T22:56:09.283Z,66.92
2018-06-18T22:58:14.191Z,65.96
2018-06-18T23:00:19.083Z,67.02
2018-06-18T23:02:29.354Z,65.92
2018-06-18T23:04:34.116Z,67.40
2018-06-18T23:06:39.115Z,67.34
2018-06-18T23:08:43.883Z,67.85
2018-06-18T23:10:49.275Z,67.02
2018-06-18T23:12:54.083Z,67.75
2018-06-18T23:14:59.217Z,66.17
2018-06-18T23:17:04.282Z,66.95
2018-06-18T23:19:08.937Z,67.62
2018-06-18T23:21:13.842Z,66.71
2018-06-18T23:23:18.472Z,67.19
2018-06-18T23:25:23.436Z,67.56
2018-06-18T23:27:28.235Z,68.01
2018-06-18T23:29:33.066Z,68.21
2018-06-18T23:31:37.785Z,68.45
2018-06-18T23:33:42.569Z,68.75
2018-06-18T23:35:47.281Z,69.27
2018-06-18T23:37:52.001Z,69.35
2018-06-18T23:39:56.734Z,68.73
2018-06-18T23:42:01.469Z,69.24
2018-06-18T23:44:06.230Z,69.44
2018-06-18T23:46:10.992Z,69.88
2018-06-18T23:48:15.617Z,70.21
2018-06-18T23:50:20.266Z,69.39
2018-06-18T23:52:25.030Z,69.34
2018-06-18T23:54:29.772Z,69.58
2018-06-18T23:56:34.431Z,69.71
2018-06-18T23:58:39.137Z,69.40
